createdAt,value
2022-08-22T00:02:46.133Z,10.48
2022-08-22T00:04:59.709Z,9.38
2022-08-22T00:10:24.964Z,10.65
2022-08-22T00:15:44.235Z,12.05
2022-08-22T00:20:54.094Z,8.65
2022-08-22T00:26:06.941Z,9.50
2022-08-22T00:37:02.281Z,10.13
2022-08-22T00:42:31.646Z,11.07
2022-08-22T00:47:53.501Z,7.18
2022-08-22T00:53:17.449Z,8.65
2022-08-22T00:58:34.149Z,11.80
2022-08-22T01:03:48.455Z,9.73
2022-08-22T01:09:23.250Z,12.95
2022-08-22T01:14:46.369Z,10.68
2022-08-22T01:20:24.931Z,11.32
2022-08-22T01:25:45.363Z,10.75
2022-08-22T01:31:07.579Z,11.40
2022-08-22T01:36:43.218Z,14.20
2022-08-22T01:42:00.073Z,15.88
2022-08-22T01:47:13.947Z,11.85
2022-08-22T01:52:29.269Z,9.55
2022-08-22T01:57:31.061Z,6.82
2022-08-22T02:02:40.576Z,9.20
2022-08-22T02:08:00.983Z,11.63
2022-08-22T02:13:12.378Z,11.48
2022-08-22T02:18:25.870Z,12.60
2022-08-22T02:24:00.274Z,10.57
2022-08-22T02:29:11.878Z,11.82
2022-08-22T02:34:34.030Z,10.02
2022-08-22T02:39:39.816Z,12.40
2022-08-22T02:44:50.737Z,10.40
2022-08-22T02:50:23.128Z,11.70
2022-08-22T02:56:08.721Z,11.40
2022-08-22T03:01:24.883Z,11.50
2022-08-22T03:06:40.049Z,11.55
2022-08-22T03:12:03.939Z,11.93
2022-08-22T03:17:17.721Z,10.88
2022-08-22T03:22:32.084Z,9.30
2022-08-22T03:27:40.618Z,10.77
2022-08-22T03:32:55.812Z,11.05
2022-08-22T03:38:44.570Z,10.27
2022-08-22T03:44:08.289Z,11.90
2022-08-22T03:49:25.407Z,8.93
2022-08-22T03:55:09.099Z,8.10
2022-08-22T04:00:36.536Z,11.75
2022-08-22T04:05:44.310Z,8.45
2022-08-22T04:11:33.112Z,11.43
2022-08-22T04:16:49.662Z,8.75
2022-08-22T04:21:54.375Z,12.50
2022-08-22T04:27:02.437Z,4.63
2022-08-22T04:32:25.375Z,4.95
2022-08-22T04:43:12.511Z,11.95
2022-08-22T04:48:27.879Z,4.13
2022-08-22T04:53:48.040Z,6.15
2022-08-22T04:58:58.147Z,5.65
2022-08-22T05:04:05.850Z,7.40
2022-08-22T05:09:16.215Z,12.45
2022-08-22T05:14:27.974Z,15.48
2022-08-22T05:19:34.694Z,10.25
2022-08-22T05:24:42.328Z,11.95
2022-08-22T05:29:48.583Z,9.82
2022-08-22T05:34:54.070Z,10.77
2022-08-22T05:40:00.124Z,11.73
2022-08-22T05:45:05.355Z,11.82
2022-08-22T05:50:10.146Z,12.98
2022-08-22T05:55:17.739Z,10.68
2022-08-22T06:00:22.603Z,13.38
2022-08-22T06:05:28.486Z,11.82
2022-08-22T06:11:00.107Z,11.48
2022-08-22T06:16:14.052Z,10.85
2022-08-22T06:21:32.532Z,11.60
2022-08-22T06:26:40.042Z,15.63
2022-08-22T06:31:46.549Z,11.65
2022-08-22T06:36:51.172Z,14.80
2022-08-22T06:42:04.752Z,15.02
2022-08-22T06:47:12.165Z,11.85
2022-08-22T06:52:23.598Z,9.65
2022-08-22T06:57:30.177Z,8.38
2022-08-22T07:02:40.686Z,11.07
2022-08-22T07:07:42.395Z,8.32
2022-08-22T07:12:48.097Z,8.43
2022-08-22T07:17:54.353Z,8.70
2022-08-22T07:23:00.206Z,12.23
2022-08-22T07:28:36.571Z,9.32
2022-08-22T07:33:44.767Z,8.85
2022-08-22T07:39:29.943Z,11.85
2022-08-22T07:44:41.394Z,7.47
2022-08-22T07:49:54.537Z,9.82
2022-08-22T07:55:22.735Z,10.70
2022-08-22T08:00:25.449Z,8.70
2022-08-22T08:10:37.356Z,6.22
2022-08-22T08:15:42.867Z,8.50
2022-08-22T08:20:49.271Z,8.55
2022-08-22T08:26:07.328Z,10.07
2022-08-22T08:31:17.987Z,6.75
2022-08-22T08:36:34.169Z,7.38
2022-08-22T08:42:01.209Z,8.15
2022-08-22T08:47:05.770Z,6.18
2022-08-22T08:52:27.984Z,10.10
2022-08-22T08:57:46.976Z,6.33
2022-08-22T09:08:44.417Z,7.75
2022-08-22T09:13:59.888Z,6.05
2022-08-22T09:19:19.953Z,7.93
2022-08-22T09:24:33.809Z,8.50
2022-08-22T09:29:54.580Z,7.82
2022-08-22T09:35:23.152Z,6.40
2022-08-22T09:40:15.326Z,8.02
2022-08-22T09:40:47.762Z,7.85
2022-08-22T09:46:06.655Z,7.00
2022-08-22T09:51:31.921Z,5.93
2022-08-22T09:56:50.582Z,5.85
2022-08-22T10:02:07.218Z,6.80
2022-08-22T10:07:20.531Z,6.78
2022-08-22T10:13:04.970Z,5.68
2022-08-22T10:18:18.501Z,8.98
2022-08-22T10:23:25.688Z,5.90
2022-08-22T10:28:40.061Z,5.15
2022-08-22T10:34:04.219Z,7.25
2022-08-22T10:39:11.848Z,8.90
2022-08-22T10:44:21.703Z,9.82
2022-08-22T10:49:35.455Z,6.82
2022-08-22T10:54:44.893Z,6.07
2022-08-22T10:59:59.484Z,7.70
2022-08-22T11:05:37.151Z,6.20
2022-08-22T11:10:53.771Z,8.43
2022-08-22T11:16:07.738Z,6.60
2022-08-22T11:21:27.593Z,6.57
2022-08-22T11:26:46.985Z,4.95
2022-08-22T11:32:16.915Z,6.93
2022-08-22T11:37:46.011Z,7.57
2022-08-22T11:42:58.031Z,5.72
2022-08-22T11:48:24.406Z,6.65
2022-08-22T11:53:39.581Z,4.72
2022-08-22T11:58:50.557Z,5.85
2022-08-22T12:04:15.829Z,5.97
2022-08-22T12:09:25.299Z,5.95
2022-08-22T12:14:36.027Z,4.88
2022-08-22T12:20:14.969Z,6.80
2022-08-22T12:25:45.423Z,4.95
2022-08-22T12:31:12.747Z,7.10
2022-08-22T12:36:22.436Z,7.93
2022-08-22T12:41:57.985Z,6.25
2022-08-22T12:47:17.315Z,5.25
2022-08-22T12:52:47.463Z,3.97
2022-08-22T12:57:58.069Z,7.93
2022-08-22T13:03:09.589Z,3.73
2022-08-22T13:08:22.168Z,4.07
2022-08-22T13:13:43.478Z,4.63
2022-08-22T13:19:07.368Z,5.72
2022-08-22T13:24:16.809Z,4.70
2022-08-22T13:29:39.552Z,4.93
2022-08-22T13:34:50.819Z,3.85
2022-08-22T13:39:58.265Z,6.35
2022-08-22T13:45:12.094Z,4.60
2022-08-22T13:50:19.211Z,4.63
2022-08-22T13:55:21.085Z,3.75
2022-08-22T14:00:58.267Z,3.93
2022-08-22T14:06:32.535Z,4.22
2022-08-22T14:11:30.977Z,4.88
2022-08-22T14:16:38.971Z,4.88
2022-08-22T14:21:45.366Z,4.53
2022-08-22T14:27:05.515Z,5.13
2022-08-22T14:32:35.528Z,6.13
2022-08-22T14:37:41.811Z,4.53
2022-08-22T14:43:05.175Z,4.40
2022-08-22T14:48:29.857Z,3.88
2022-08-22T14:53:37.103Z,4.88
2022-08-22T14:58:50.815Z,4.13
2022-08-22T15:03:59.201Z,5.75
2022-08-22T15:09:07.955Z,3.60
2022-08-22T15:14:21.440Z,3.65
2022-08-22T15:19:43.069Z,4.80
2022-08-22T15:25:04.951Z,4.10
2022-08-22T15:30:16.589Z,4.85
2022-08-22T15:35:32.085Z,4.60
2022-08-22T15:40:45.725Z,6.45
2022-08-22T15:45:50.393Z,6.15
2022-08-22T15:51:02.838Z,5.43
2022-08-22T15:56:13.891Z,6.38
2022-08-22T16:01:22.441Z,5.03
2022-08-22T16:06:46.652Z,4.15
2022-08-22T16:11:54.893Z,3.72
2022-08-22T16:17:01.362Z,3.78
2022-08-22T16:22:06.711Z,5.32
2022-08-22T16:27:19.172Z,4.97
2022-08-22T16:32:28.192Z,4.90
2022-08-22T16:37:35.613Z,4.95
2022-08-22T16:42:40.669Z,6.25
2022-08-22T16:47:54.504Z,4.40
2022-08-22T16:53:10.198Z,7.53
2022-08-22T16:58:12.091Z,4.72
2022-08-22T17:03:35.435Z,4.38
2022-08-22T17:08:57.243Z,5.28
2022-08-22T17:14:08.507Z,4.32
2022-08-22T17:19:35.616Z,4.65
2022-08-22T17:24:59.411Z,4.05
2022-08-22T17:30:15.528Z,4.95
2022-08-22T17:35:38.901Z,4.88
2022-08-22T17:40:57.551Z,4.22
2022-08-22T17:46:28.601Z,3.67
2022-08-22T17:51:38.889Z,4.32
2022-08-22T17:56:47.268Z,5.30
2022-08-22T18:02:01.291Z,3.83
2022-08-22T18:07:14.978Z,4.70
2022-08-22T18:12:28.324Z,3.95
2022-08-22T18:17:50.764Z,3.55
2022-08-22T18:22:57.699Z,5.90
2022-08-22T18:28:11.696Z,5.07
2022-08-22T18:33:28.153Z,5.45
2022-08-22T18:38:51.523Z,3.83
2022-08-22T18:43:53.551Z,5.22
2022-08-22T18:49:14.478Z,5.77
2022-08-22T18:54:36.923Z,5.80
2022-08-22T18:59:56.901Z,5.00
2022-08-22T19:05:24.578Z,5.43
2022-08-22T19:10:35.498Z,5.80
2022-08-22T19:16:05.399Z,8.57
2022-08-22T19:21:42.128Z,5.22
2022-08-22T19:26:48.062Z,6.88
2022-08-22T19:31:52.647Z,6.25
2022-08-22T19:37:32.209Z,7.03
2022-08-22T19:42:36.564Z,7.05
2022-08-22T19:47:42.697Z,5.75
2022-08-22T19:52:56.648Z,6.82
2022-08-22T19:58:37.857Z,6.65
2022-08-22T20:03:59.074Z,7.63
2022-08-22T20:09:30.484Z,6.07
2022-08-22T20:14:36.541Z,5.60
2022-08-22T20:20:16.511Z,6.00
2022-08-22T20:25:43.107Z,4.45
2022-08-22T20:30:46.948Z,10.05
2022-08-22T20:35:59.145Z,6.45
2022-08-22T20:41:23.694Z,4.40
2022-08-22T20:46:43.814Z,4.47
2022-08-22T20:51:54.335Z,8.07
2022-08-22T20:57:01.359Z,5.95
2022-08-22T21:02:19.021Z,6.22
2022-08-22T21:07:41.851Z,5.70
2022-08-22T21:12:59.855Z,4.95
2022-08-22T21:18:02.046Z,6.80
2022-08-22T21:23:08.896Z,8.80
2022-08-22T21:28:11.243Z,5.47
2022-08-22T21:33:23.961Z,5.57
2022-08-22T21:38:27.393Z,6.55
2022-08-22T21:43:36.973Z,11.25
2022-08-22T21:48:56.514Z,5.40
2022-08-22T21:54:33.563Z,6.90
2022-08-22T21:59:51.417Z,6.78
2022-08-22T22:05:02.372Z,6.32
2022-08-22T22:10:06.011Z,8.52
2022-08-22T22:15:09.429Z,6.50
2022-08-22T22:20:12.791Z,6.63
2022-08-22T22:25:38.901Z,6.25
2022-08-22T22:30:39.552Z,5.28
2022-08-22T22:35:41.382Z,7.97
2022-08-22T22:40:43.210Z,7.18
2022-08-22T22:45:44.977Z,7.28
2022-08-22T22:50:47.299Z,6.75
2022-08-22T22:55:59.979Z,6.55
2022-08-22T23:01:22.295Z,6.28
2022-08-22T23:06:26.482Z,6.97
2022-08-22T23:11:30.196Z,8.98
2022-08-22T23:16:37.023Z,7.53
2022-08-22T23:21:40.655Z,6.95
2022-08-22T23:26:42.788Z,5.65
2022-08-22T23:31:57.022Z,6.77
2022-08-22T23:37:00.734Z,6.53
2022-08-22T23:42:02.706Z,10.98
2022-08-22T23:47:06.511Z,7.83
2022-08-22T23:52:09.775Z,8.43
2022-08-22T23:57:12.729Z,7.35
